createdAt,value
2022-10-17T00:02:09.535Z,15.00
2022-10-17T00:07:11.405Z,15.00
2022-10-17T00:12:13.143Z,15.00
2022-10-17T00:17:15.729Z,15.00
2022-10-17T00:22:17.528Z,15.00
2022-10-17T00:27:19.309Z,15.00
2022-10-17T00:32:21.182Z,15.10
2022-10-17T00:37:23.099Z,15.10
2022-10-17T00:42:25.932Z,15.20
2022-10-17T00:47:28.951Z,15.20
2022-10-17T00:52:32.004Z,15.30
2022-10-17T00:57:34.291Z,15.20
2022-10-17T01:02:36.731Z,15.30
2022-10-17T01:07:39.882Z,15.30
2022-10-17T01:12:57.147Z,15.30
2022-10-17T01:18:24.643Z,15.50
2022-10-17T01:23:45.157Z,15.50
2022-10-17T01:29:40.810Z,15.50
2022-10-17T01:35:17.688Z,15.50
2022-10-17T01:40:27.029Z,15.50
2022-10-17T01:45:37.259Z,15.50
2022-10-17T01:50:45.091Z,15.40
2022-10-17T01:55:49.552Z,15.40
2022-10-17T02:00:53.588Z,15.50
2022-10-17T02:05:56.088Z,15.60
2022-10-17T02:11:06.919Z,15.70
2022-10-17T02:16:35.664Z,15.90
2022-10-17T02:22:06.934Z,15.90
2022-10-17T02:27:14.819Z,16.00
2022-10-17T02:32:26.667Z,16.20
2022-10-17T02:37:31.455Z,16.40
2022-10-17T02:42:34.095Z,16.20
2022-10-17T02:47:46.156Z,16.40
2022-10-17T02:53:03.605Z,16.40
2022-10-17T02:58:28.146Z,16.40
2022-10-17T03:03:32.231Z,16.40
2022-10-17T03:08:33.983Z,16.50
2022-10-17T03:13:38.965Z,16.50
2022-10-17T03:18:44.346Z,16.50
2022-10-17T03:23:48.494Z,16.60
2022-10-17T03:28:53.494Z,16.70
2022-10-17T03:33:56.395Z,16.70
2022-10-17T03:38:58.226Z,16.80
2022-10-17T03:44:00.004Z,16.80
2022-10-17T03:49:01.947Z,16.70
2022-10-17T03:54:04.039Z,16.60
2022-10-17T03:59:06.074Z,16.50
2022-10-17T04:04:08.209Z,16.50
2022-10-17T04:09:11.187Z,16.50
2022-10-17T04:14:12.978Z,16.50
2022-10-17T04:19:14.772Z,16.50
2022-10-17T04:24:16.825Z,16.60
2022-10-17T04:29:18.667Z,16.60
2022-10-17T04:34:20.398Z,16.60
2022-10-17T04:39:22.241Z,16.70
2022-10-17T04:44:24.087Z,16.60
2022-10-17T04:49:25.815Z,16.60
2022-10-17T04:54:27.487Z,16.70
2022-10-17T04:59:29.219Z,16.60
2022-10-17T05:04:30.998Z,16.60
2022-10-17T05:09:32.871Z,16.60
2022-10-17T05:14:34.657Z,16.60
2022-10-17T05:19:36.368Z,16.70
2022-10-17T05:24:38.067Z,16.80
2022-10-17T05:29:39.819Z,16.80
2022-10-17T05:34:41.560Z,16.70
2022-10-17T05:39:43.952Z,16.70
2022-10-17T05:44:47.626Z,16.70
2022-10-17T05:49:52.318Z,16.70
2022-10-17T05:54:54.381Z,16.70
2022-10-17T05:59:56.144Z,16.70
2022-10-17T06:04:58.071Z,16.70
2022-10-17T06:09:59.794Z,16.80
2022-10-17T06:15:01.645Z,16.70
2022-10-17T06:20:04.336Z,16.80
2022-10-17T06:25:06.484Z,16.80
2022-10-17T06:30:08.817Z,16.90
2022-10-17T06:35:10.679Z,16.90
2022-10-17T06:40:15.090Z,17.00
2022-10-17T06:45:17.028Z,17.00
2022-10-17T06:50:18.785Z,17.10
2022-10-17T06:55:23.002Z,17.20
2022-10-17T07:00:26.834Z,17.40
2022-10-17T07:05:28.617Z,17.50
2022-10-17T07:10:30.364Z,17.70
2022-10-17T07:15:32.484Z,17.80
2022-10-17T07:20:34.723Z,17.80
2022-10-17T07:25:40.043Z,17.90
2022-10-17T07:30:42.328Z,17.90
2022-10-17T07:35:44.171Z,17.90
2022-10-17T07:40:45.946Z,17.80
2022-10-17T07:45:47.711Z,17.80
2022-10-17T07:50:49.796Z,17.80
2022-10-17T07:55:51.619Z,17.80
2022-10-17T08:00:53.416Z,17.90
2022-10-17T08:05:58.951Z,17.80
2022-10-17T08:11:09.635Z,17.80
2022-10-17T08:16:12.913Z,17.70
2022-10-17T08:21:14.804Z,17.60
2022-10-17T08:26:17.355Z,17.60
2022-10-17T08:31:20.671Z,17.60
2022-10-17T08:36:22.385Z,17.50
2022-10-17T08:41:39.178Z,17.40
2022-10-17T08:46:43.877Z,17.30
2022-10-17T08:51:52.815Z,17.30
2022-10-17T08:56:55.737Z,17.20
2022-10-17T09:02:23.372Z,17.30
2022-10-17T09:07:42.336Z,17.30
2022-10-17T09:13:06.872Z,17.20
2022-10-17T09:18:28.447Z,17.20
2022-10-17T09:23:45.370Z,17.30
2022-10-17T09:28:54.249Z,17.20
2022-10-17T09:33:57.842Z,17.20
2022-10-17T09:39:22.898Z,17.20
2022-10-17T09:44:29.177Z,17.20
2022-10-17T09:49:40.397Z,17.20
2022-10-17T09:54:49.509Z,17.20
2022-10-17T10:00:00.595Z,17.20
2022-10-17T10:05:18.828Z,17.30
2022-10-17T10:10:27.993Z,17.30
2022-10-17T10:15:34.433Z,17.40
2022-10-17T10:20:37.636Z,17.40
2022-10-17T10:25:50.120Z,17.50
2022-10-17T10:30:52.989Z,17.60
2022-10-17T10:35:58.945Z,17.70
2022-10-17T10:41:10.215Z,17.80
2022-10-17T10:46:27.331Z,17.80
2022-10-17T10:51:35.294Z,17.80
2022-10-17T10:56:54.769Z,17.90
2022-10-17T11:02:21.020Z,17.80
2022-10-17T11:07:42.120Z,17.80
2022-10-17T11:13:17.140Z,17.80
2022-10-17T11:18:38.532Z,17.80
2022-10-17T11:23:46.754Z,17.90
2022-10-17T11:28:48.965Z,17.90
2022-10-17T11:33:50.736Z,18.00
2022-10-17T11:39:18.649Z,18.00
2022-10-17T11:44:32.789Z,18.00
2022-10-17T11:49:40.501Z,18.10
2022-10-17T11:54:50.869Z,18.20
2022-10-17T12:00:16.995Z,18.20
2022-10-17T12:05:37.277Z,18.30
2022-10-17T12:10:57.620Z,18.20
2022-10-17T12:16:22.281Z,18.20
2022-10-17T12:21:27.299Z,18.20
2022-10-17T12:26:31.443Z,18.20
2022-10-17T12:31:34.319Z,18.20
2022-10-17T12:36:37.268Z,18.20
2022-10-17T12:41:39.106Z,18.20
2022-10-17T12:46:56.065Z,18.20
2022-10-17T12:52:15.852Z,18.20
2022-10-17T12:57:39.264Z,18.20
2022-10-17T13:02:41.400Z,18.20
2022-10-17T13:07:45.344Z,18.20
2022-10-17T13:12:48.873Z,18.10
2022-10-17T13:17:59.045Z,18.10
2022-10-17T13:23:01.026Z,18.20
2022-10-17T13:28:13.597Z,18.20
2022-10-17T13:33:42.350Z,18.20
2022-10-17T13:38:44.213Z,18.30
2022-10-17T13:43:46.123Z,18.30
2022-10-17T13:48:49.433Z,18.30
2022-10-17T13:53:51.414Z,18.30
2022-10-17T13:58:57.296Z,18.40
2022-10-17T14:04:20.222Z,18.40
2022-10-17T14:09:26.835Z,18.40
2022-10-17T14:14:32.136Z,18.30
2022-10-17T14:19:37.943Z,18.20
2022-10-17T14:24:42.144Z,18.20
2022-10-17T14:29:52.729Z,18.20
2022-10-17T14:35:05.591Z,18.30
2022-10-17T14:40:21.044Z,18.20
2022-10-17T14:45:28.083Z,18.20
2022-10-17T14:50:31.921Z,18.20
2022-10-17T14:55:35.956Z,18.30
2022-10-17T15:00:37.644Z,18.30
2022-10-17T15:05:39.817Z,18.30
2022-10-17T15:10:42.578Z,18.30
2022-10-17T15:15:44.920Z,18.20
2022-10-17T15:20:46.818Z,18.20
2022-10-17T15:25:48.575Z,18.20
2022-10-17T15:30:50.293Z,18.10
2022-10-17T15:35:52.243Z,18.10
2022-10-17T15:40:53.975Z,18.10
2022-10-17T15:45:55.720Z,18.00
2022-10-17T15:50:57.722Z,17.90
2022-10-17T15:56:00.175Z,17.90
2022-10-17T16:01:02.349Z,17.90
2022-10-17T16:06:04.176Z,17.90
2022-10-17T16:11:06.253Z,17.80
2022-10-17T16:16:11.469Z,17.80
2022-10-17T16:21:14.995Z,17.70
2022-10-17T16:26:16.880Z,17.60
2022-10-17T16:31:23.329Z,17.70
2022-10-17T16:36:25.512Z,17.60
2022-10-17T16:41:29.891Z,17.50
2022-10-17T16:46:33.278Z,17.50
2022-10-17T16:51:35.940Z,17.50
2022-10-17T16:56:37.903Z,17.50
2022-10-17T17:01:39.926Z,17.40
2022-10-17T17:06:41.792Z,17.30
2022-10-17T17:11:43.553Z,17.30
2022-10-17T17:16:45.315Z,17.20
2022-10-17T17:21:51.080Z,17.10
2022-10-17T17:26:54.832Z,17.10
2022-10-17T17:31:56.575Z,17.00
2022-10-17T17:36:58.380Z,16.90
2022-10-17T17:42:00.274Z,16.90
2022-10-17T17:47:02.202Z,16.90
2022-10-17T17:57:10.727Z,16.70
2022-10-17T18:02:12.556Z,16.70
2022-10-17T18:07:14.637Z,16.70
2022-10-17T18:12:17.671Z,16.60
2022-10-17T18:17:19.444Z,16.60
2022-10-17T18:22:21.537Z,16.60
2022-10-17T18:27:23.379Z,16.60
2022-10-17T18:32:25.284Z,16.50
2022-10-17T18:37:27.352Z,16.50
2022-10-17T18:42:29.346Z,16.50
2022-10-17T18:47:33.259Z,16.50
2022-10-17T18:52:35.068Z,16.50
2022-10-17T18:57:36.926Z,16.40
2022-10-17T19:02:38.717Z,16.40
2022-10-17T19:07:40.481Z,16.40
2022-10-17T19:12:42.313Z,16.40
2022-10-17T19:17:44.106Z,16.40
2022-10-17T19:22:46.213Z,16.40
2022-10-17T19:27:48.060Z,16.40
2022-10-17T19:32:49.985Z,16.40
2022-10-17T19:37:53.209Z,16.40
2022-10-17T19:42:55.089Z,16.30
2022-10-17T19:47:57.059Z,16.30
2022-10-17T19:52:58.838Z,16.20
2022-10-17T19:58:03.036Z,16.20
2022-10-17T20:03:06.117Z,16.20
2022-10-17T20:08:07.938Z,16.00
2022-10-17T20:13:10.699Z,16.00
2022-10-17T20:18:12.466Z,16.10
2022-10-17T20:23:14.577Z,15.90
2022-10-17T20:28:16.376Z,16.00
2022-10-17T20:33:18.132Z,15.90
2022-10-17T20:38:19.947Z,15.90
2022-10-17T20:43:21.832Z,15.90
2022-10-17T20:48:24.003Z,15.90
2022-10-17T20:53:36.521Z,15.80
2022-10-17T20:58:38.955Z,15.90
2022-10-17T21:03:43.872Z,15.90
2022-10-17T21:08:49.116Z,15.80
2022-10-17T21:14:00.268Z,15.80
2022-10-17T21:19:03.745Z,15.90
2022-10-17T21:24:12.361Z,16.00
2022-10-17T21:29:14.300Z,15.80
2022-10-17T21:34:20.224Z,15.80
2022-10-17T21:39:24.201Z,15.90
2022-10-17T21:44:26.903Z,15.90
2022-10-17T21:49:29.739Z,16.00
2022-10-17T21:54:31.600Z,16.00
2022-10-17T21:59:35.226Z,15.80
2022-10-17T22:04:38.950Z,15.80
2022-10-17T22:09:40.675Z,15.80
2022-10-17T22:14:44.416Z,15.80
2022-10-17T22:19:47.178Z,15.80
2022-10-17T22:24:49.060Z,15.90
2022-10-17T22:29:50.783Z,15.90
2022-10-17T22:34:52.491Z,15.90
2022-10-17T22:39:56.299Z,15.80
2022-10-17T22:44:58.027Z,15.80
2022-10-17T22:49:59.736Z,15.70
2022-10-17T22:55:01.801Z,15.80
2022-10-17T23:00:21.897Z,15.60
2022-10-17T23:05:23.838Z,15.60
2022-10-17T23:10:25.630Z,15.60
2022-10-17T23:15:27.433Z,15.50
2022-10-17T23:20:30.377Z,15.50
2022-10-17T23:25:34.236Z,15.50
2022-10-17T23:30:37.344Z,15.60
2022-10-17T23:35:39.741Z,15.60
2022-10-17T23:40:42.134Z,15.60
2022-10-17T23:45:44.050Z,15.70
2022-10-17T23:50:45.863Z,15.60
2022-10-17T23:55:47.566Z,15.60
